sensor_id;sensor_type;location;lat;lon;timestamp;temperature;humidity
12329;DHT22;6230;52.390;10.256;2023-01-05T00:01:12;13.50;76.10
12329;DHT22;6230;52.390;10.256;2023-01-05T00:03:39;13.50;76.00
12329;DHT22;6230;52.390;10.256;2023-01-05T00:06:10;13.50;76.00
12329;DHT22;6230;52.390;10.256;2023-01-05T00:08:36;13.60;75.90
12329;DHT22;6230;52.390;10.256;2023-01-05T00:11:06;13.50;75.80
12329;DHT22;6230;52.390;10.256;2023-01-05T00:13:51;13.60;75.90
12329;DHT22;6230;52.390;10.256;2023-01-05T00:16:35;13.60;75.80
12329;DHT22;6230;52.390;10.256;2023-01-05T00:19:19;13.60;75.70
12329;DHT22;6230;52.390;10.256;2023-01-05T00:22:25;13.60;75.70
12329;DHT22;6230;52.390;10.256;2023-01-05T00:27:31;13.60;75.70
12329;DHT22;6230;52.390;10.256;2023-01-05T00:29:57;13.60;75.70
12329;DHT22;6230;52.390;10.256;2023-01-05T00:32:23;13.60;75.60
12329;DHT22;6230;52.390;10.256;2023-01-05T00:34:49;13.60;75.60
12329;DHT22;6230;52.390;10.256;2023-01-05T00:37:23;13.60;75.50
12329;DHT22;6230;52.390;10.256;2023-01-05T00:39:49;13.60;75.50
12329;DHT22;6230;52.390;10.256;2023-01-05T00:42:15;13.60;75.40
12329;DHT22;6230;52.390;10.256;2023-01-05T00:44:41;13.60;75.50
12329;DHT22;6230;52.390;10.256;2023-01-05T00:47:06;13.60;75.60
12329;DHT22;6230;52.390;10.256;2023-01-05T00:49:32;13.50;75.60
12329;DHT22;6230;52.390;10.256;2023-01-05T00:51:58;13.50;75.70
12329;DHT22;6230;52.390;10.256;2023-01-05T00:54:23;13.50;75.70
12329;DHT22;6230;52.390;10.256;2023-01-05T00:56:49;13.50;75.70
12329;DHT22;6230;52.390;10.256;2023-01-05T00:59:15;13.50;75.70
12329;DHT22;6230;52.390;10.256;2023-01-05T01:01:44;13.50;75.70
12329;DHT22;6230;52.390;10.256;2023-01-05T01:04:10;13.50;75.80
12329;DHT22;6230;52.390;10.256;2023-01-05T01:06:35;13.50;75.80
12329;DHT22;6230;52.390;10.256;2023-01-05T01:09:01;13.50;75.90
12329;DHT22;6230;52.390;10.256;2023-01-05T01:11:27;13.50;75.90
12329;DHT22;6230;52.390;10.256;2023-01-05T01:13:52;13.40;75.90
12329;DHT22;6230;52.390;10.256;2023-01-05T01:16:18;13.50;75.90
12329;DHT22;6230;52.390;10.256;2023-01-05T01:18:43;13.50;75.90
12329;DHT22;6230;52.390;10.256;2023-01-05T01:21:09;13.50;75.80
12329;DHT22;6230;52.390;10.256;2023-01-05T01:23:35;13.50;75.80
12329;DHT22;6230;52.390;10.256;2023-01-05T01:26:09;13.50;75.80
12329;DHT22;6230;52.390;10.256;2023-01-05T01:28:35;13.50;75.80
12329;DHT22;6230;52.390;10.256;2023-01-05T01:31:00;13.50;75.60
12329;DHT22;6230;52.390;10.256;2023-01-05T01:33:27;13.50;75.60
12329;DHT22;6230;52.390;10.256;2023-01-05T01:35:53;13.50;75.60
12329;DHT22;6230;52.390;10.256;2023-01-05T01:38:18;13.50;75.50
12329;DHT22;6230;52.390;10.256;2023-01-05T01:40:46;13.50;75.40
12329;DHT22;6230;52.390;10.256;2023-01-05T01:43:13;13.50;75.30
12329;DHT22;6230;52.390;10.256;2023-01-05T01:45:39;13.50;75.30
12329;DHT22;6230;52.390;10.256;2023-01-05T01:48:06;13.50;75.30
12329;DHT22;6230;52.390;10.256;2023-01-05T01:50:40;13.50;75.30
12329;DHT22;6230;52.390;10.256;2023-01-05T01:53:12;13.50;75.30
12329;DHT22;6230;52.390;10.256;2023-01-05T01:55:39;13.50;75.40
12329;DHT22;6230;52.390;10.256;2023-01-05T01:58:07;13.40;75.30
12329;DHT22;6230;52.390;10.256;2023-01-05T02:00:38;13.40;75.40
12329;DHT22;6230;52.390;10.256;2023-01-05T02:03:04;13.40;75.50
12329;DHT22;6230;52.390;10.256;2023-01-05T02:05:31;13.40;75.50
12329;DHT22;6230;52.390;10.256;2023-01-05T02:07:58;13.40;75.60
12329;DHT22;6230;52.390;10.256;2023-01-05T02:10:40;13.30;75.60
12329;DHT22;6230;52.390;10.256;2023-01-05T02:13:20;13.30;75.70
12329;DHT22;6230;52.390;10.256;2023-01-05T02:15:56;13.30;75.70
12329;DHT22;6230;52.390;10.256;2023-01-05T02:18:39;13.30;75.70
12329;DHT22;6230;52.390;10.256;2023-01-05T02:21:21;13.30;75.70
12329;DHT22;6230;52.390;10.256;2023-01-05T02:29:50;13.20;75.60
12329;DHT22;6230;52.390;10.256;2023-01-05T02:32:33;13.20;75.70
12329;DHT22;6230;52.390;10.256;2023-01-05T02:37:41;13.20;75.70
12329;DHT22;6230;52.390;10.256;2023-01-05T02:40:14;13.20;75.90
12329;DHT22;6230;52.390;10.256;2023-01-05T02:42:45;13.20;76.00
12329;DHT22;6230;52.390;10.256;2023-01-05T02:45:15;13.10;76.10
12329;DHT22;6230;52.390;10.256;2023-01-05T02:47:43;13.10;76.20
12329;DHT22;6230;52.390;10.256;2023-01-05T02:50:28;13.10;76.30
12329;DHT22;6230;52.390;10.256;2023-01-05T02:53:15;13.00;76.40
12329;DHT22;6230;52.390;10.256;2023-01-05T02:55:47;13.00;76.50
12329;DHT22;6230;52.390;10.256;2023-01-05T02:58:31;13.00;76.40
12329;DHT22;6230;52.390;10.256;2023-01-05T03:01:01;13.00;76.50
12329;DHT22;6230;52.390;10.256;2023-01-05T03:03:40;13.00;76.40
12329;DHT22;6230;52.390;10.256;2023-01-05T03:06:19;13.00;76.40
12329;DHT22;6230;52.390;10.256;2023-01-05T03:08:56;13.10;76.40
12329;DHT22;6230;52.390;10.256;2023-01-05T03:11:27;13.10;76.40
12329;DHT22;6230;52.390;10.256;2023-01-05T03:14:24;13.10;76.40
12329;DHT22;6230;52.390;10.256;2023-01-05T03:16:53;13.00;76.30
12329;DHT22;6230;52.390;10.256;2023-01-05T03:19:20;13.10;76.40
12329;DHT22;6230;52.390;10.256;2023-01-05T03:22:28;13.10;76.40
12329;DHT22;6230;52.390;10.256;2023-01-05T03:25:16;13.00;76.40
12329;DHT22;6230;52.390;10.256;2023-01-05T03:28:02;13.10;76.40
12329;DHT22;6230;52.390;10.256;2023-01-05T03:30:52;13.10;76.30
12329;DHT22;6230;52.390;10.256;2023-01-05T03:37:12;13.00;76.40
12329;DHT22;6230;52.390;10.256;2023-01-05T03:39:41;13.00;76.30
12329;DHT22;6230;52.390;10.256;2023-01-05T03:42:08;13.10;76.40
12329;DHT22;6230;52.390;10.256;2023-01-05T03:44:37;13.10;76.40
12329;DHT22;6230;52.390;10.256;2023-01-05T03:47:03;13.10;76.40
12329;DHT22;6230;52.390;10.256;2023-01-05T03:49:28;13.00;76.30
12329;DHT22;6230;52.390;10.256;2023-01-05T03:51:54;13.00;76.30
12329;DHT22;6230;52.390;10.256;2023-01-05T03:54:20;13.00;76.30
12329;DHT22;6230;52.390;10.256;2023-01-05T03:56:45;13.00;76.30
12329;DHT22;6230;52.390;10.256;2023-01-05T03:59:11;13.10;76.40
12329;DHT22;6230;52.390;10.256;2023-01-05T04:01:36;13.10;76.30
12329;DHT22;6230;52.390;10.256;2023-01-05T04:04:02;13.10;76.30
12329;DHT22;6230;52.390;10.256;2023-01-05T04:06:28;13.00;76.30
12329;DHT22;6230;52.390;10.256;2023-01-05T04:08:53;13.00;76.20
12329;DHT22;6230;52.390;10.256;2023-01-05T04:11:21;13.00;76.20
12329;DHT22;6230;52.390;10.256;2023-01-05T04:13:47;13.00;76.20
12329;DHT22;6230;52.390;10.256;2023-01-05T04:16:12;13.00;76.10
12329;DHT22;6230;52.390;10.256;2023-01-05T04:18:38;13.00;76.10
12329;DHT22;6230;52.390;10.256;2023-01-05T04:21:04;13.00;76.20
12329;DHT22;6230;52.390;10.256;2023-01-05T04:23:30;13.00;76.20
12329;DHT22;6230;52.390;10.256;2023-01-05T04:25:55;13.00;76.20
12329;DHT22;6230;52.390;10.256;2023-01-05T04:28:21;13.00;76.20
12329;DHT22;6230;52.390;10.256;2023-01-05T04:30:51;13.00;76.20
12329;DHT22;6230;52.390;10.256;2023-01-05T04:33:17;13.00;76.20
12329;DHT22;6230;52.390;10.256;2023-01-05T04:35:43;13.00;76.30
12329;DHT22;6230;52.390;10.256;2023-01-05T04:38:08;13.00;76.40
12329;DHT22;6230;52.390;10.256;2023-01-05T04:40:34;12.90;76.50
12329;DHT22;6230;52.390;10.256;2023-01-05T04:43:00;12.90;76.50
12329;DHT22;6230;52.390;10.256;2023-01-05T04:45:25;12.90;76.70
12329;DHT22;6230;52.390;10.256;2023-01-05T04:47:51;12.90;76.70
12329;DHT22;6230;52.390;10.256;2023-01-05T04:50:17;12.90;76.80
12329;DHT22;6230;52.390;10.256;2023-01-05T04:52:43;12.90;76.80
12329;DHT22;6230;52.390;10.256;2023-01-05T04:55:09;12.90;76.80
12329;DHT22;6230;52.390;10.256;2023-01-05T04:57:34;12.80;76.70
12329;DHT22;6230;52.390;10.256;2023-01-05T05:00:00;12.80;76.70
12329;DHT22;6230;52.390;10.256;2023-01-05T05:02:26;12.80;76.70
12329;DHT22;6230;52.390;10.256;2023-01-05T05:04:51;12.80;76.80
12329;DHT22;6230;52.390;10.256;2023-01-05T05:07:17;12.80;76.80
12329;DHT22;6230;52.390;10.256;2023-01-05T05:09:43;12.80;76.80
12329;DHT22;6230;52.390;10.256;2023-01-05T05:12:08;12.80;76.80
12329;DHT22;6230;52.390;10.256;2023-01-05T05:14:34;12.80;76.80
12329;DHT22;6230;52.390;10.256;2023-01-05T05:16:59;12.80;76.80
12329;DHT22;6230;52.390;10.256;2023-01-05T05:19:25;12.80;76.70
12329;DHT22;6230;52.390;10.256;2023-01-05T05:21:50;12.80;76.70
12329;DHT22;6230;52.390;10.256;2023-01-05T05:24:16;12.80;76.70
12329;DHT22;6230;52.390;10.256;2023-01-05T05:26:41;12.80;76.70
12329;DHT22;6230;52.390;10.256;2023-01-05T05:29:07;12.80;76.70
12329;DHT22;6230;52.390;10.256;2023-01-05T05:31:32;12.80;76.70
12329;DHT22;6230;52.390;10.256;2023-01-05T05:33:58;12.80;76.70
12329;DHT22;6230;52.390;10.256;2023-01-05T05:36:24;12.80;76.70
12329;DHT22;6230;52.390;10.256;2023-01-05T05:38:49;12.80;76.60
12329;DHT22;6230;52.390;10.256;2023-01-05T05:41:15;12.80;76.50
12329;DHT22;6230;52.390;10.256;2023-01-05T05:43:40;12.80;76.50
12329;DHT22;6230;52.390;10.256;2023-01-05T05:46:06;12.80;76.50
12329;DHT22;6230;52.390;10.256;2023-01-05T05:48:31;12.80;76.40
12329;DHT22;6230;52.390;10.256;2023-01-05T05:50:57;12.80;76.40
12329;DHT22;6230;52.390;10.256;2023-01-05T05:53:23;12.80;76.40
12329;DHT22;6230;52.390;10.256;2023-01-05T05:55:49;12.80;76.30
12329;DHT22;6230;52.390;10.256;2023-01-05T05:58:16;12.80;76.40
12329;DHT22;6230;52.390;10.256;2023-01-05T06:00:41;12.80;76.30
12329;DHT22;6230;52.390;10.256;2023-01-05T06:03:07;12.80;76.30
12329;DHT22;6230;52.390;10.256;2023-01-05T06:05:32;12.80;76.30
12329;DHT22;6230;52.390;10.256;2023-01-05T06:07:58;12.80;76.40
12329;DHT22;6230;52.390;10.256;2023-01-05T06:10:23;12.80;76.40
12329;DHT22;6230;52.390;10.256;2023-01-05T06:12:51;12.80;76.40
12329;DHT22;6230;52.390;10.256;2023-01-05T06:15:17;12.80;76.40
12329;DHT22;6230;52.390;10.256;2023-01-05T06:17:44;12.80;76.30
12329;DHT22;6230;52.390;10.256;2023-01-05T06:20:10;12.80;76.30
12329;DHT22;6230;52.390;10.256;2023-01-05T06:22:35;12.80;76.30
12329;DHT22;6230;52.390;10.256;2023-01-05T06:25:01;12.80;76.30
12329;DHT22;6230;52.390;10.256;2023-01-05T06:27:27;12.80;76.30
12329;DHT22;6230;52.390;10.256;2023-01-05T06:29:52;12.80;76.40
12329;DHT22;6230;52.390;10.256;2023-01-05T06:32:18;12.80;76.30
12329;DHT22;6230;52.390;10.256;2023-01-05T06:34:43;12.80;76.20
12329;DHT22;6230;52.390;10.256;2023-01-05T06:37:09;12.80;76.20
12329;DHT22;6230;52.390;10.256;2023-01-05T06:39:34;12.80;76.20
12329;DHT22;6230;52.390;10.256;2023-01-05T06:42:00;12.80;76.10
12329;DHT22;6230;52.390;10.256;2023-01-05T06:44:25;12.80;76.80
12329;DHT22;6230;52.390;10.256;2023-01-05T06:46:51;12.80;76.00
12329;DHT22;6230;52.390;10.256;2023-01-05T06:49:16;12.80;76.00
12329;DHT22;6230;52.390;10.256;2023-01-05T06:51:42;12.80;76.00
12329;DHT22;6230;52.390;10.256;2023-01-05T06:54:08;12.80;76.00
12329;DHT22;6230;52.390;10.256;2023-01-05T06:56:33;12.80;76.00
12329;DHT22;6230;52.390;10.256;2023-01-05T06:58:59;12.80;76.00
12329;DHT22;6230;52.390;10.256;2023-01-05T07:01:24;12.80;76.00
12329;DHT22;6230;52.390;10.256;2023-01-05T07:03:50;12.80;75.90
12329;DHT22;6230;52.390;10.256;2023-01-05T07:06:15;12.80;75.80
12329;DHT22;6230;52.390;10.256;2023-01-05T07:08:41;12.80;75.90
12329;DHT22;6230;52.390;10.256;2023-01-05T07:11:07;12.80;75.90
12329;DHT22;6230;52.390;10.256;2023-01-05T07:13:32;12.80;75.90
12329;DHT22;6230;52.390;10.256;2023-01-05T07:15:58;12.80;75.80
12329;DHT22;6230;52.390;10.256;2023-01-05T07:18:23;12.80;75.90
12329;DHT22;6230;52.390;10.256;2023-01-05T07:20:49;12.80;76.00
12329;DHT22;6230;52.390;10.256;2023-01-05T07:23:15;12.80;76.00
12329;DHT22;6230;52.390;10.256;2023-01-05T07:25:41;12.80;76.10
12329;DHT22;6230;52.390;10.256;2023-01-05T07:28:06;12.70;76.80
12329;DHT22;6230;52.390;10.256;2023-01-05T07:30:32;12.70;76.10
12329;DHT22;6230;52.390;10.256;2023-01-05T07:32:58;12.70;76.10
12329;DHT22;6230;52.390;10.256;2023-01-05T07:35:24;12.70;76.20
12329;DHT22;6230;52.390;10.256;2023-01-05T07:37:50;12.70;76.30
12329;DHT22;6230;52.390;10.256;2023-01-05T07:40:15;12.70;76.40
12329;DHT22;6230;52.390;10.256;2023-01-05T07:42:41;12.70;76.40
12329;DHT22;6230;52.390;10.256;2023-01-05T07:45:07;12.70;76.40
12329;DHT22;6230;52.390;10.256;2023-01-05T07:47:33;12.70;76.40
12329;DHT22;6230;52.390;10.256;2023-01-05T07:49:59;12.70;76.40
12329;DHT22;6230;52.390;10.256;2023-01-05T07:52:26;12.70;76.40
12329;DHT22;6230;52.390;10.256;2023-01-05T07:54:52;12.70;76.50
12329;DHT22;6230;52.390;10.256;2023-01-05T07:57:17;12.70;76.60
12329;DHT22;6230;52.390;10.256;2023-01-05T07:59:43;12.70;76.60
12329;DHT22;6230;52.390;10.256;2023-01-05T08:02:09;12.70;76.60
12329;DHT22;6230;52.390;10.256;2023-01-05T08:04:35;12.70;76.80
12329;DHT22;6230;52.390;10.256;2023-01-05T08:07:00;12.70;76.80
12329;DHT22;6230;52.390;10.256;2023-01-05T08:09:26;12.60;76.90
12329;DHT22;6230;52.390;10.256;2023-01-05T08:12:10;12.60;77.00
12329;DHT22;6230;52.390;10.256;2023-01-05T08:14:36;12.50;77.00
12329;DHT22;6230;52.390;10.256;2023-01-05T08:17:01;12.60;77.20
12329;DHT22;6230;52.390;10.256;2023-01-05T08:19:27;12.60;77.20
12329;DHT22;6230;52.390;10.256;2023-01-05T08:21:52;12.50;77.20
12329;DHT22;6230;52.390;10.256;2023-01-05T08:24:18;12.50;77.30
12329;DHT22;6230;52.390;10.256;2023-01-05T08:26:43;12.60;77.40
12329;DHT22;6230;52.390;10.256;2023-01-05T08:29:09;12.50;77.30
12329;DHT22;6230;52.390;10.256;2023-01-05T08:31:37;12.60;77.50
12329;DHT22;6230;52.390;10.256;2023-01-05T08:34:03;12.50;77.40
12329;DHT22;6230;52.390;10.256;2023-01-05T08:36:29;12.50;77.50
12329;DHT22;6230;52.390;10.256;2023-01-05T08:38:56;12.60;77.60
12329;DHT22;6230;52.390;10.256;2023-01-05T08:41:23;12.50;77.50
12329;DHT22;6230;52.390;10.256;2023-01-05T08:43:54;12.50;77.60
12329;DHT22;6230;52.390;10.256;2023-01-05T08:46:22;12.50;77.70
12329;DHT22;6230;52.390;10.256;2023-01-05T08:48:49;12.50;77.70
12329;DHT22;6230;52.390;10.256;2023-01-05T08:51:14;12.50;77.70
12329;DHT22;6230;52.390;10.256;2023-01-05T08:53:40;12.50;77.70
12329;DHT22;6230;52.390;10.256;2023-01-05T08:56:05;12.50;77.80
12329;DHT22;6230;52.390;10.256;2023-01-05T08:58:31;12.50;77.90
12329;DHT22;6230;52.390;10.256;2023-01-05T09:00:57;12.50;77.90
12329;DHT22;6230;52.390;10.256;2023-01-05T09:03:23;12.50;77.90
12329;DHT22;6230;52.390;10.256;2023-01-05T09:05:51;12.50;77.90
12329;DHT22;6230;52.390;10.256;2023-01-05T09:08:17;12.40;77.90
12329;DHT22;6230;52.390;10.256;2023-01-05T09:10:43;12.50;78.00
12329;DHT22;6230;52.390;10.256;2023-01-05T09:13:08;12.50;78.00
12329;DHT22;6230;52.390;10.256;2023-01-05T09:15:35;12.50;78.00
12329;DHT22;6230;52.390;10.256;2023-01-05T09:18:00;12.50;77.90
12329;DHT22;6230;52.390;10.256;2023-01-05T09:20:26;12.50;77.90
12329;DHT22;6230;52.390;10.256;2023-01-05T09:22:51;12.50;77.90
12329;DHT22;6230;52.390;10.256;2023-01-05T09:25:17;12.50;77.90
12329;DHT22;6230;52.390;10.256;2023-01-05T09:27:42;12.50;77.90
12329;DHT22;6230;52.390;10.256;2023-01-05T09:30:08;12.60;78.00
12329;DHT22;6230;52.390;10.256;2023-01-05T09:32:36;12.60;78.00
12329;DHT22;6230;52.390;10.256;2023-01-05T09:35:01;12.50;78.00
12329;DHT22;6230;52.390;10.256;2023-01-05T09:37:27;12.50;77.90
12329;DHT22;6230;52.390;10.256;2023-01-05T09:39:52;12.60;78.00
12329;DHT22;6230;52.390;10.256;2023-01-05T09:42:20;12.60;78.00
12329;DHT22;6230;52.390;10.256;2023-01-05T09:44:51;12.50;77.90
12329;DHT22;6230;52.390;10.256;2023-01-05T09:47:29;12.60;78.00
12329;DHT22;6230;52.390;10.256;2023-01-05T09:49:57;12.60;78.10
12329;DHT22;6230;52.390;10.256;2023-01-05T09:52:24;12.60;78.00
12329;DHT22;6230;52.390;10.256;2023-01-05T09:54:50;12.60;78.10
12329;DHT22;6230;52.390;10.256;2023-01-05T09:57:25;12.60;78.10
12329;DHT22;6230;52.390;10.256;2023-01-05T09:59:54;12.60;78.80
12329;DHT22;6230;52.390;10.256;2023-01-05T10:05:04;12.40;77.40
12329;DHT22;6230;52.390;10.256;2023-01-05T10:07:58;12.30;77.20
12329;DHT22;6230;52.390;10.256;2023-01-05T10:10:47;12.10;77.10
12329;DHT22;6230;52.390;10.256;2023-01-05T10:13:38;12.00;77.10
12329;DHT22;6230;52.390;10.256;2023-01-05T10:16:04;11.90;77.10
12329;DHT22;6230;52.390;10.256;2023-01-05T10:18:30;11.80;77.10
12329;DHT22;6230;52.390;10.256;2023-01-05T10:26:19;11.50;77.10
12329;DHT22;6230;52.390;10.256;2023-01-05T10:29:05;11.50;77.10
12329;DHT22;6230;52.390;10.256;2023-01-05T10:31:57;11.40;77.10
12329;DHT22;6230;52.390;10.256;2023-01-05T10:45:29;11.50;77.20
12329;DHT22;6230;52.390;10.256;2023-01-05T10:47:56;11.50;77.10
12329;DHT22;6230;52.390;10.256;2023-01-05T10:50:38;11.60;77.10
12329;DHT22;6230;52.390;10.256;2023-01-05T10:53:17;11.60;77.20
12329;DHT22;6230;52.390;10.256;2023-01-05T10:55:51;11.60;77.30
12329;DHT22;6230;52.390;10.256;2023-01-05T10:58:24;11.70;77.30
12329;DHT22;6230;52.390;10.256;2023-01-05T11:00:53;11.70;77.40
12329;DHT22;6230;52.390;10.256;2023-01-05T11:03:38;11.70;77.30
12329;DHT22;6230;52.390;10.256;2023-01-05T11:06:04;11.80;77.50
12329;DHT22;6230;52.390;10.256;2023-01-05T11:08:31;11.80;77.40
12329;DHT22;6230;52.390;10.256;2023-01-05T11:11:03;11.80;77.50
12329;DHT22;6230;52.390;10.256;2023-01-05T11:13:36;11.90;77.60
12329;DHT22;6230;52.390;10.256;2023-01-05T11:16:12;11.90;77.60
12329;DHT22;6230;52.390;10.256;2023-01-05T11:18:51;12.00;77.70
12329;DHT22;6230;52.390;10.256;2023-01-05T11:21:19;12.00;77.60
12329;DHT22;6230;52.390;10.256;2023-01-05T11:26:21;12.10;77.40
12329;DHT22;6230;52.390;10.256;2023-01-05T11:28:57;12.10;77.40
12329;DHT22;6230;52.390;10.256;2023-01-05T11:31:26;12.10;77.30
12329;DHT22;6230;52.390;10.256;2023-01-05T11:33:56;12.10;77.20
12329;DHT22;6230;52.390;10.256;2023-01-05T11:36:23;12.10;77.10
12329;DHT22;6230;52.390;10.256;2023-01-05T11:38:53;12.10;77.00
12329;DHT22;6230;52.390;10.256;2023-01-05T11:41:20;12.10;77.00
12329;DHT22;6230;52.390;10.256;2023-01-05T11:43:47;12.10;77.00
12329;DHT22;6230;52.390;10.256;2023-01-05T11:46:13;12.10;77.00
12329;DHT22;6230;52.390;10.256;2023-01-05T11:48:49;12.10;77.00
12329;DHT22;6230;52.390;10.256;2023-01-05T11:51:39;12.10;77.00
12329;DHT22;6230;52.390;10.256;2023-01-05T11:54:07;12.10;77.00
12329;DHT22;6230;52.390;10.256;2023-01-05T11:57:05;12.20;77.00
12329;DHT22;6230;52.390;10.256;2023-01-05T11:59:30;12.20;76.90
12329;DHT22;6230;52.390;10.256;2023-01-05T12:05:24;12.20;76.80
12329;DHT22;6230;52.390;10.256;2023-01-05T12:07:57;12.20;76.60
12329;DHT22;6230;52.390;10.256;2023-01-05T12:10:43;12.30;76.60
12329;DHT22;6230;52.390;10.256;2023-01-05T12:16:32;12.30;76.60
12329;DHT22;6230;52.390;10.256;2023-01-05T12:22:22;12.30;76.40
12329;DHT22;6230;52.390;10.256;2023-01-05T12:24:58;12.20;76.40
12329;DHT22;6230;52.390;10.256;2023-01-05T12:27:44;12.30;76.40
12329;DHT22;6230;52.390;10.256;2023-01-05T12:30:25;12.30;76.50
12329;DHT22;6230;52.390;10.256;2023-01-05T12:33:13;12.30;76.50
12329;DHT22;6230;52.390;10.256;2023-01-05T12:36:58;12.20;76.40
12329;DHT22;6230;52.390;10.256;2023-01-05T12:49:33;12.20;76.60
12329;DHT22;6230;52.390;10.256;2023-01-05T12:52:06;12.20;76.70
12329;DHT22;6230;52.390;10.256;2023-01-05T12:54:58;12.30;76.60
12329;DHT22;6230;52.390;10.256;2023-01-05T12:57:32;12.30;76.70
12329;DHT22;6230;52.390;10.256;2023-01-05T13:00:08;12.40;76.70
12329;DHT22;6230;52.390;10.256;2023-01-05T13:02:53;12.40;76.50
12329;DHT22;6230;52.390;10.256;2023-01-05T13:05:26;12.30;76.40
12329;DHT22;6230;52.390;10.256;2023-01-05T13:08:06;12.40;76.40
12329;DHT22;6230;52.390;10.256;2023-01-05T13:13:27;12.30;76.30
12329;DHT22;6230;52.390;10.256;2023-01-05T13:18:26;12.30;76.20
12329;DHT22;6230;52.390;10.256;2023-01-05T13:20:58;12.30;76.20
12329;DHT22;6230;52.390;10.256;2023-01-05T13:23:36;12.30;76.30
12329;DHT22;6230;52.390;10.256;2023-01-05T13:26:30;12.20;76.20
12329;DHT22;6230;52.390;10.256;2023-01-05T13:28:56;12.20;76.20
12329;DHT22;6230;52.390;10.256;2023-01-05T13:31:40;12.20;76.10
12329;DHT22;6230;52.390;10.256;2023-01-05T13:34:43;12.20;76.10
12329;DHT22;6230;52.390;10.256;2023-01-05T13:37:35;12.20;76.10
12329;DHT22;6230;52.390;10.256;2023-01-05T13:48:26;12.20;75.90
12329;DHT22;6230;52.390;10.256;2023-01-05T13:53:31;12.20;75.70
12329;DHT22;6230;52.390;10.256;2023-01-05T13:56:05;12.10;75.50
12329;DHT22;6230;52.390;10.256;2023-01-05T13:58:47;12.10;75.40
12329;DHT22;6230;52.390;10.256;2023-01-05T14:01:18;12.20;75.40
12329;DHT22;6230;52.390;10.256;2023-01-05T14:03:52;12.20;75.30
12329;DHT22;6230;52.390;10.256;2023-01-05T14:06:23;12.20;75.20
12329;DHT22;6230;52.390;10.256;2023-01-05T14:08:57;12.20;75.20
12329;DHT22;6230;52.390;10.256;2023-01-05T14:11:26;12.20;75.00
12329;DHT22;6230;52.390;10.256;2023-01-05T14:13:53;12.10;74.80
12329;DHT22;6230;52.390;10.256;2023-01-05T14:24:35;12.20;74.70
12329;DHT22;6230;52.390;10.256;2023-01-05T14:32:30;12.10;74.90
12329;DHT22;6230;52.390;10.256;2023-01-05T14:35:12;12.20;74.90
12329;DHT22;6230;52.390;10.256;2023-01-05T14:37:51;12.20;74.90
12329;DHT22;6230;52.390;10.256;2023-01-05T14:40:37;12.20;75.00
12329;DHT22;6230;52.390;10.256;2023-01-05T14:43:06;12.20;75.00
12329;DHT22;6230;52.390;10.256;2023-01-05T14:46:02;12.20;74.90
12329;DHT22;6230;52.390;10.256;2023-01-05T14:48:41;12.20;75.00
12329;DHT22;6230;52.390;10.256;2023-01-05T14:51:28;12.20;75.00
12329;DHT22;6230;52.390;10.256;2023-01-05T14:53:57;12.20;75.10
12329;DHT22;6230;52.390;10.256;2023-01-05T14:56:26;12.20;75.00
12329;DHT22;6230;52.390;10.256;2023-01-05T14:58:59;12.20;75.20
12329;DHT22;6230;52.390;10.256;2023-01-05T15:01:45;12.20;75.40
12329;DHT22;6230;52.390;10.256;2023-01-05T15:04:16;12.20;75.30
12329;DHT22;6230;52.390;10.256;2023-01-05T15:06:59;12.20;75.30
12329;DHT22;6230;52.390;10.256;2023-01-05T15:12:57;12.20;75.40
12329;DHT22;6230;52.390;10.256;2023-01-05T15:20:49;12.20;75.50
12329;DHT22;6230;52.390;10.256;2023-01-05T15:23:36;12.20;75.70
12329;DHT22;6230;52.390;10.256;2023-01-05T15:31:46;12.20;75.90
12329;DHT22;6230;52.390;10.256;2023-01-05T15:34:29;12.20;75.90
12329;DHT22;6230;52.390;10.256;2023-01-05T15:39:50;12.20;76.10
12329;DHT22;6230;52.390;10.256;2023-01-05T15:42:37;12.20;76.00
12329;DHT22;6230;52.390;10.256;2023-01-05T15:45:05;12.20;76.20
12329;DHT22;6230;52.390;10.256;2023-01-05T15:47:36;12.20;76.10
12329;DHT22;6230;52.390;10.256;2023-01-05T15:50:03;12.20;76.20
12329;DHT22;6230;52.390;10.256;2023-01-05T15:52:37;12.20;76.30
12329;DHT22;6230;52.390;10.256;2023-01-05T15:55:15;12.20;76.40
12329;DHT22;6230;52.390;10.256;2023-01-05T15:57:41;12.20;76.50
12329;DHT22;6230;52.390;10.256;2023-01-05T16:00:34;12.20;76.40
12329;DHT22;6230;52.390;10.256;2023-01-05T16:03:00;12.10;76.50
12329;DHT22;6230;52.390;10.256;2023-01-05T16:05:31;12.10;76.30
12329;DHT22;6230;52.390;10.256;2023-01-05T16:07:59;12.10;76.30
12329;DHT22;6230;52.390;10.256;2023-01-05T16:10:37;12.10;76.30
12329;DHT22;6230;52.390;10.256;2023-01-05T16:13:16;12.10;76.30
12329;DHT22;6230;52.390;10.256;2023-01-05T16:15:46;12.10;76.30
12329;DHT22;6230;52.390;10.256;2023-01-05T16:18:21;12.10;76.30
12329;DHT22;6230;52.390;10.256;2023-01-05T16:20:48;12.00;77.00
12329;DHT22;6230;52.390;10.256;2023-01-05T16:25:52;12.00;76.30
12329;DHT22;6230;52.390;10.256;2023-01-05T16:28:19;11.90;76.20
12329;DHT22;6230;52.390;10.256;2023-01-05T16:30:47;12.00;76.40
12329;DHT22;6230;52.390;10.256;2023-01-05T16:35:47;12.00;76.40
12329;DHT22;6230;52.390;10.256;2023-01-05T16:38:25;12.00;76.40
12329;DHT22;6230;52.390;10.256;2023-01-05T16:48:45;11.90;76.20
12329;DHT22;6230;52.390;10.256;2023-01-05T16:51:18;11.90;76.20
12329;DHT22;6230;52.390;10.256;2023-01-05T16:53:46;11.90;76.20
12329;DHT22;6230;52.390;10.256;2023-01-05T16:56:19;11.90;76.20
12329;DHT22;6230;52.390;10.256;2023-01-05T16:58:45;11.90;76.20
12329;DHT22;6230;52.390;10.256;2023-01-05T17:01:21;12.00;76.20
12329;DHT22;6230;52.390;10.256;2023-01-05T17:03:47;12.00;76.30
12329;DHT22;6230;52.390;10.256;2023-01-05T17:06:19;12.00;76.20
12329;DHT22;6230;52.390;10.256;2023-01-05T17:08:45;12.00;76.20
12329;DHT22;6230;52.390;10.256;2023-01-05T17:11:10;11.90;76.20
12329;DHT22;6230;52.390;10.256;2023-01-05T17:13:51;11.90;76.20
12329;DHT22;6230;52.390;10.256;2023-01-05T17:16:18;12.00;76.40
12329;DHT22;6230;52.390;10.256;2023-01-05T17:18:44;12.00;76.40
12329;DHT22;6230;52.390;10.256;2023-01-05T17:21:14;12.00;76.40
12329;DHT22;6230;52.390;10.256;2023-01-05T17:23:49;12.00;76.40
12329;DHT22;6230;52.390;10.256;2023-01-05T17:26:37;12.00;76.50
12329;DHT22;6230;52.390;10.256;2023-01-05T17:29:04;12.00;76.50
12329;DHT22;6230;52.390;10.256;2023-01-05T17:31:31;12.00;76.30
12329;DHT22;6230;52.390;10.256;2023-01-05T17:33:57;12.10;76.30
12329;DHT22;6230;52.390;10.256;2023-01-05T17:36:27;12.10;76.30
12329;DHT22;6230;52.390;10.256;2023-01-05T17:38:53;12.00;76.30
12329;DHT22;6230;52.390;10.256;2023-01-05T17:41:18;12.00;76.40
12329;DHT22;6230;52.390;10.256;2023-01-05T17:43:44;12.00;76.50
12329;DHT22;6230;52.390;10.256;2023-01-05T17:46:15;12.00;77.30
12329;DHT22;6230;52.390;10.256;2023-01-05T17:48:42;12.00;76.60